Drummond Island, MI (49726)

6:18 PM EDT on September 27, 2016 (GMT -0400)
Potagannissing Bay Front | | Change Station

Elev 587 ft 46.06 °N, 83.67 °W | Updated 8 seconds ago

Light Rain
Light Rain
53.8 °F
Feels Like 53.8 °F
N
15.0
Wind Variable Wind from South
Gusts 16.0 mph

Today
High -- | Low -- °F
--% Chance of Precip.
Yesterday
High -- | Low -- °F
Precip. -- in
Pressure 29.63 in
Visibility 10.0 miles
Clouds Scattered Clouds 800 ft
Mostly Cloudy 1500 ft
Overcast 3300 ft
Dew Point 53 °F
Humidity 96%
Rainfall 2.25 in
Snow Depth Not available.
7:28 AM 7:21 PM
Waning Crescent, 9% visible
METAR KDRM 272154Z AUTO 20007KT 10SM -RA SCT008 BKN015 OVC033 12/12 A2963 RMK AO2 P0007 T01220116
Pressure 29.63 in
Visibility 10.0 miles
Clouds Scattered Clouds 800 ft
Mostly Cloudy 1500 ft
Overcast 3300 ft
Dew Point 53 °F
Humidity 96%
Rainfall 2.25 in
Snow Depth Not available.
7:28 AM 7:21 PM
Waning Crescent, 9% visible
METAR KDRM 272154Z AUTO 20007KT 10SM -RA SCT008 BKN015 OVC033 12/12 A2963 RMK AO2 P0007 T01220116

10-Day Weather Forecast

Almanac

Astronomy

Sep. 27, 2016 Rise Set
Actual Time
Civil Twilight
Nautical Twilight
Astronomical Twilight
Moon
Length of Visible Light
Length of Day
Tomorrow will be .
, % of the Moon is Illuminated

Today's Extremes

State Highs State Lows

Community

WunderPhotos

Upload Photos

1,942,168 photos uploaded!

WunderBlog® & News

Nearby

Air Quality

  Air Quality AQ Index Pollutant
Not available.

Snow Depth

Station Depth Elevation

Earthquake Activity

City Distance Mag. Time & Date
Minimum magnitude displayed is 2.5.

Coastal Water Temperatures

Place Temperature

Stations

Nearby Weather Stations

Station Location Temp. Windchill Dew Point Humidity Wind Precip. Elev Updated Type
                   

Watches & Warnings

There are currently no watches in effect.